createdAt,value
2018-11-14T05:43:19.504Z,47.50
2018-11-14T05:45:48.191Z,64.67
2018-11-14T05:48:17.212Z,100.37
2018-11-14T05:50:45.900Z,52.13
2018-11-14T05:53:14.277Z,90.23
2018-11-14T05:55:43.204Z,118.43
2018-11-14T05:58:11.626Z,126.37
2018-11-14T06:00:40.629Z,119.07
2018-11-14T06:03:09.020Z,178.33
2018-11-14T06:05:37.846Z,108.13
2018-11-14T06:08:06.253Z,109.07
2018-11-14T06:10:34.952Z,167.47
2018-11-14T06:13:03.436Z,245.83
2018-11-14T06:15:31.842Z,100.47
2018-11-14T06:18:01.404Z,252.07
2018-11-14T06:20:30.138Z,243.60
2018-11-14T06:22:58.775Z,122.10
2018-11-14T06:25:31.965Z,169.60
2018-11-14T06:28:02.001Z,160.50
2018-11-14T06:30:31.290Z,136.93
2018-11-14T06:33:00.883Z,253.50
2018-11-14T06:35:29.886Z,148.97
2018-11-14T06:37:58.764Z,172.53
2018-11-14T06:40:27.288Z,142.27
2018-11-14T06:42:55.942Z,174.83
2018-11-14T06:45:27.205Z,118.23
2018-11-14T06:47:57.008Z,116.67
2018-11-14T06:50:25.961Z,84.17
2018-11-14T06:52:56.851Z,157.90
2018-11-14T06:55:25.853Z,129.37
2018-11-14T06:57:54.299Z,164.23
2018-11-14T07:00:25.282Z,128.70
2018-11-14T07:02:54.604Z,131.87
2018-11-14T07:05:23.584Z,106.60
2018-11-14T07:07:52.402Z,97.23
2018-11-14T07:10:22.457Z,140.13
2018-11-14T07:12:51.280Z,151.27
2018-11-14T07:15:21.465Z,195.37
2018-11-14T07:17:51.987Z,127.93
2018-11-14T07:20:25.445Z,141.07
2018-11-14T07:22:53.871Z,129.87
2018-11-14T07:25:22.712Z,391.13
2018-11-14T07:27:51.123Z,158.07
2018-11-14T07:30:23.059Z,122.60
2018-11-14T07:32:53.603Z,230.10
2018-11-14T07:35:22.037Z,109.30
2018-11-14T07:38:33.435Z,101.57
2018-11-14T07:41:03.191Z,92.60
2018-11-14T07:43:32.375Z,67.87
2018-11-14T07:46:01.324Z,81.03
2018-11-14T07:48:31.053Z,65.83
2018-11-14T07:50:59.896Z,98.20
2018-11-14T07:53:28.376Z,83.70
2018-11-14T07:55:57.273Z,84.87
2018-11-14T07:58:25.762Z,103.17
2018-11-14T08:00:55.261Z,107.07
2018-11-14T08:03:24.235Z,73.67
2018-11-14T08:05:53.354Z,72.33
2018-11-14T08:08:22.015Z,89.83
2018-11-14T08:10:50.689Z,95.53
2018-11-14T08:13:21.441Z,100.90
2018-11-14T08:15:51.786Z,134.90
2018-11-14T08:18:20.859Z,138.57
2018-11-14T08:20:49.641Z,60.67
2018-11-14T08:23:18.539Z,65.80
2018-11-14T08:25:47.618Z,69.17
2018-11-14T08:28:16.389Z,56.63
2018-11-14T08:30:45.910Z,94.47
2018-11-14T08:33:14.728Z,41.83
2018-11-14T08:35:43.592Z,159.90
2018-11-14T08:38:11.997Z,199.33
2018-11-14T08:40:40.653Z,134.13
2018-11-14T08:43:09.752Z,82.63
2018-11-14T08:45:38.256Z,95.07
2018-11-14T08:48:07.884Z,162.17
2018-11-14T08:50:36.800Z,41.90
2018-11-14T08:53:06.937Z,153.37
2018-11-14T08:55:35.608Z,202.43
2018-11-14T08:58:04.114Z,126.57
2018-11-14T09:00:33.564Z,151.23
2018-11-14T09:03:01.981Z,127.70
2018-11-14T09:05:30.632Z,134.13
2018-11-14T09:08:00.176Z,159.60
2018-11-14T09:10:29.159Z,72.43
2018-11-14T09:12:58.069Z,133.97
2018-11-14T09:15:26.918Z,116.27
2018-11-14T09:17:55.626Z,108.17
2018-11-14T09:20:26.413Z,85.67
2018-11-14T09:22:56.242Z,27.10
2018-11-14T09:25:27.656Z,40.53
2018-11-14T09:27:56.776Z,131.27
2018-11-14T09:30:26.167Z,89.80
2018-11-14T09:32:54.683Z,69.60
2018-11-14T09:35:24.342Z,54.30
2018-11-14T09:37:53.936Z,141.03
2018-11-14T09:40:24.986Z,50.87
2018-11-14T09:42:53.772Z,70.60
2018-11-14T09:45:23.532Z,78.30
2018-11-14T09:47:51.961Z,51.80
2018-11-14T09:50:22.919Z,103.80
2018-11-14T09:52:53.157Z,125.80
2018-11-14T09:55:22.125Z,53.53
2018-11-14T09:57:50.571Z,58.93
2018-11-14T10:00:23.476Z,35.10
2018-11-14T10:02:54.694Z,44.53
2018-11-14T10:05:24.552Z,75.93
2018-11-14T10:07:52.986Z,41.20
2018-11-14T10:10:22.531Z,24.67
2018-11-14T10:12:50.968Z,41.40
2018-11-14T10:15:20.438Z,47.90
2018-11-14T10:17:49.513Z,19.03
2018-11-14T10:20:20.656Z,25.23
2018-11-14T10:22:49.705Z,47.53
2018-11-14T10:25:18.662Z,18.10
2018-11-14T10:27:48.482Z,18.17
2018-11-14T10:30:22.777Z,23.60
2018-11-14T10:32:52.081Z,23.60
2018-11-14T10:35:20.575Z,15.03
2018-11-14T10:37:49.141Z,12.17
2018-11-14T10:40:21.491Z,16.37
2018-11-14T10:42:50.309Z,15.27
2018-11-14T10:45:21.022Z,22.63
2018-11-14T10:47:49.682Z,16.03
2018-11-14T10:50:20.746Z,19.97
2018-11-14T10:52:49.352Z,17.30
2018-11-14T10:55:18.327Z,13.30
2018-11-14T10:57:47.200Z,16.23
2018-11-14T11:00:26.667Z,15.07
2018-11-14T11:03:01.236Z,14.80
2018-11-14T11:05:35.173Z,13.23
2018-11-14T11:08:09.764Z,13.30
2018-11-14T11:10:43.687Z,18.00
2018-11-14T11:13:16.412Z,16.47
2018-11-14T11:15:50.852Z,14.40
2018-11-14T11:18:20.679Z,14.37
2018-11-14T11:20:49.581Z,14.87
2018-11-14T11:23:18.006Z,14.30
2018-11-14T11:25:46.390Z,13.00
2018-11-14T11:28:15.042Z,12.83
2018-11-14T11:30:43.831Z,13.83
2018-11-14T11:33:12.958Z,14.03
2018-11-14T11:35:41.792Z,14.03
2018-11-14T11:38:11.426Z,13.60
2018-11-14T11:40:39.793Z,12.73
2018-11-14T11:43:08.407Z,12.80
2018-11-14T11:45:37.117Z,12.60
2018-11-14T11:48:05.740Z,13.73
2018-11-14T11:50:34.125Z,13.50
2018-11-14T11:53:02.873Z,13.33
2018-11-14T11:55:31.838Z,13.07
2018-11-14T11:58:00.746Z,12.50
2018-11-14T12:00:29.575Z,15.23
2018-11-14T12:02:57.932Z,13.70
2018-11-14T12:05:26.313Z,13.70
2018-11-14T12:07:55.238Z,13.97
2018-11-14T12:10:24.248Z,14.67
2018-11-14T12:12:53.261Z,14.00
2018-11-14T12:15:22.294Z,15.47
2018-11-14T12:17:51.327Z,11.97
2018-11-14T12:20:19.680Z,11.63
2018-11-14T12:22:48.333Z,13.53
2018-11-14T12:25:16.713Z,13.13
2018-11-14T12:27:45.446Z,12.23
2018-11-14T12:30:17.808Z,11.27
2018-11-14T12:32:46.189Z,11.60
2018-11-14T12:35:16.177Z,13.60
2018-11-14T12:37:44.719Z,12.63
2018-11-14T12:40:14.750Z,14.27
2018-11-14T12:42:44.193Z,13.17
2018-11-14T12:45:14.096Z,15.93
2018-11-14T12:47:42.825Z,13.70
2018-11-14T12:50:12.658Z,16.20
2018-11-14T12:52:41.787Z,14.60
2018-11-14T12:55:12.381Z,17.33
2018-11-14T12:57:40.978Z,14.53
2018-11-14T13:00:11.966Z,15.50
2018-11-14T13:02:40.511Z,14.27
2018-11-14T13:05:11.010Z,14.77
2018-11-14T13:07:40.022Z,15.57
2018-11-14T13:10:10.488Z,21.17
2018-11-14T13:12:38.879Z,16.77
2018-11-14T13:15:09.446Z,17.53
2018-11-14T13:17:38.126Z,19.83
2018-11-14T13:20:09.268Z,21.17
2018-11-14T13:22:38.175Z,21.17
2018-11-14T13:25:08.460Z,21.63
2018-11-14T13:27:36.848Z,20.10
2018-11-14T13:30:08.063Z,18.40
2018-11-14T13:32:36.679Z,21.53
2018-11-14T13:35:08.964Z,18.13
2018-11-14T13:37:37.468Z,21.10
2018-11-14T13:40:07.071Z,16.03
2018-11-14T13:42:36.033Z,16.70
2018-11-14T13:45:05.010Z,17.00
2018-11-14T13:47:33.987Z,16.97
2018-11-14T13:50:02.466Z,16.27
2018-11-14T13:52:31.990Z,18.07
2018-11-14T13:55:00.788Z,18.67
2018-11-14T13:57:29.417Z,19.77
2018-11-14T13:59:58.359Z,20.03
2018-11-14T14:02:27.036Z,18.30
2018-11-14T14:04:55.409Z,19.80
2018-11-14T14:07:24.115Z,19.70
2018-11-14T14:09:52.551Z,19.33
2018-11-14T14:12:21.452Z,17.30
2018-11-14T14:14:49.920Z,18.30
2018-11-14T14:17:18.530Z,15.93
2018-11-14T14:19:48.267Z,15.93
2018-11-14T14:22:17.145Z,18.20
2018-11-14T14:24:46.036Z,29.23
2018-11-14T14:27:14.443Z,20.90
2018-11-14T14:29:43.013Z,22.57
2018-11-14T14:32:11.904Z,18.93
2018-11-14T14:34:40.850Z,18.07
2018-11-14T14:37:09.269Z,20.63
2018-11-14T14:39:37.946Z,21.90
2018-11-14T14:42:06.916Z,21.60
2018-11-14T14:44:36.035Z,22.23
2018-11-14T14:47:05.449Z,22.03
2018-11-14T14:49:33.934Z,22.73
2018-11-14T14:52:02.881Z,22.73
2018-11-14T14:54:31.639Z,21.77
2018-11-14T14:57:00.049Z,24.37
2018-11-14T14:59:28.703Z,24.97
2018-11-14T15:01:57.212Z,27.33
2018-11-14T15:04:25.607Z,24.03
2018-11-14T15:06:54.106Z,23.20
2018-11-14T15:09:22.800Z,23.97
2018-11-14T15:11:51.784Z,25.47
2018-11-14T15:14:20.212Z,30.63
2018-11-14T15:16:49.161Z,22.60
2018-11-14T15:19:18.181Z,27.77
2018-11-14T15:21:47.156Z,24.83
2018-11-14T15:24:16.290Z,28.83
2018-11-14T15:26:44.872Z,28.13
2018-11-14T15:29:13.779Z,26.83
2018-11-14T15:31:42.579Z,27.67
2018-11-14T15:34:11.000Z,26.77
2018-11-14T15:36:39.392Z,32.30
2018-11-14T15:39:10.442Z,38.33
2018-11-14T15:41:39.027Z,34.90
2018-11-14T15:44:08.200Z,33.50
2018-11-14T15:46:37.641Z,35.27
2018-11-14T15:49:06.500Z,45.30
2018-11-14T15:51:35.823Z,36.10
2018-11-14T15:54:04.420Z,42.05
2018-11-14T15:56:33.058Z,36.20
2018-11-14T15:59:01.732Z,38.60
2018-11-14T16:01:30.907Z,47.08
2018-11-14T16:03:59.604Z,42.03
2018-11-14T16:06:28.063Z,40.47
2018-11-14T16:08:56.550Z,37.83
2018-11-14T16:11:25.471Z,39.80
2018-11-14T16:13:58.378Z,40.17
2018-11-14T16:16:27.891Z,35.83
2018-11-14T16:18:57.266Z,36.87
2018-11-14T16:21:26.013Z,36.20
2018-11-14T16:23:55.366Z,34.93
2018-11-14T16:26:24.021Z,36.23
2018-11-14T16:28:52.431Z,35.97
2018-11-14T16:31:21.390Z,37.90
2018-11-14T16:33:50.518Z,39.03
2018-11-14T16:36:19.067Z,39.07
2018-11-14T16:38:47.511Z,43.47
2018-11-14T16:41:15.986Z,45.83
2018-11-14T16:43:44.379Z,50.27
2018-11-14T16:46:13.001Z,46.97
2018-11-14T16:48:41.393Z,46.30
2018-11-14T16:51:09.812Z,47.20
2018-11-14T16:53:38.226Z,44.90
2018-11-14T16:56:07.013Z,47.37
2018-11-14T16:58:36.056Z,52.13
2018-11-14T17:01:04.492Z,56.63
2018-11-14T17:03:33.142Z,52.97
2018-11-14T17:06:01.833Z,51.00
2018-11-14T17:08:30.580Z,54.83
2018-11-14T17:10:59.438Z,56.73
2018-11-14T17:13:27.849Z,58.37
2018-11-14T17:15:56.549Z,56.67
2018-11-14T17:18:25.528Z,57.27
2018-11-14T17:20:54.158Z,51.37
2018-11-14T17:23:22.563Z,49.40
2018-11-14T17:25:51.483Z,45.53
2018-11-14T17:28:19.870Z,49.90
2018-11-14T17:30:48.285Z,46.47
2018-11-14T17:33:16.709Z,47.93
2018-11-14T17:35:45.130Z,53.60
2018-11-14T17:38:14.060Z,51.70
2018-11-14T17:40:42.785Z,47.73
2018-11-14T17:43:11.212Z,41.13
2018-11-14T17:45:39.616Z,42.13
2018-11-14T17:48:08.507Z,36.77
2018-11-14T17:50:37.265Z,42.80
2018-11-14T17:53:05.906Z,37.07
2018-11-14T17:55:34.631Z,40.27
2018-11-14T17:58:03.565Z,39.00
2018-11-14T18:00:33.005Z,38.47
2018-11-14T18:03:01.801Z,43.47
2018-11-14T18:05:31.466Z,47.77
2018-11-14T18:07:59.868Z,43.63
2018-11-14T18:10:29.755Z,44.17
2018-11-14T18:12:59.659Z,45.00
2018-11-14T18:15:28.089Z,48.23
2018-11-14T18:17:57.579Z,48.87
2018-11-14T18:20:28.204Z,45.13
2018-11-14T18:22:56.982Z,48.00
2018-11-14T18:25:25.535Z,44.27
2018-11-14T18:27:54.544Z,51.03
2018-11-14T18:30:27.487Z,51.20
2018-11-14T18:32:57.123Z,48.27
2018-11-14T18:35:26.786Z,47.70
2018-11-14T18:37:56.669Z,45.77
2018-11-14T18:40:27.821Z,46.03
2018-11-14T18:42:56.501Z,42.97
2018-11-14T18:45:28.471Z,45.00
2018-11-14T18:47:57.941Z,39.47
2018-11-14T18:50:27.148Z,45.30
2018-11-14T18:52:56.164Z,40.53
2018-11-14T18:55:26.343Z,42.93
2018-11-14T18:57:55.466Z,42.83
2018-11-14T19:00:27.332Z,43.30
2018-11-14T19:02:56.755Z,40.13
2018-11-14T19:05:25.427Z,41.70
2018-11-14T19:07:54.074Z,37.00
2018-11-14T19:10:24.423Z,42.43
2018-11-14T19:12:53.755Z,40.73
2018-11-14T19:15:25.193Z,39.23
2018-11-14T19:17:53.984Z,36.27
2018-11-14T19:20:26.168Z,41.80
2018-11-14T19:22:55.618Z,42.73
2018-11-14T19:25:26.579Z,34.97
2018-11-14T19:27:55.757Z,38.30
2018-11-14T19:30:25.934Z,43.07
2018-11-14T19:32:55.419Z,43.67
2018-11-14T19:35:24.102Z,43.50
2018-11-14T19:37:53.991Z,44.70
2018-11-14T19:40:23.901Z,47.63
2018-11-14T19:42:54.354Z,51.77
2018-11-14T19:45:24.673Z,50.10
2018-11-14T19:47:53.600Z,49.40
2018-11-14T19:50:23.063Z,53.97
2018-11-14T19:52:52.059Z,52.90
2018-11-14T19:55:21.916Z,58.83
2018-11-14T19:57:51.996Z,58.00
2018-11-14T20:00:23.201Z,59.43
2018-11-14T20:02:51.678Z,56.77
2018-11-14T20:05:20.722Z,59.23
2018-11-14T20:07:49.919Z,52.97
2018-11-14T20:10:21.755Z,64.90
2018-11-14T20:12:50.891Z,56.77
2018-11-14T20:15:21.156Z,54.67
2018-11-14T20:17:50.224Z,54.33
2018-11-14T20:20:20.309Z,49.83
2018-11-14T20:22:49.353Z,49.13
2018-11-14T20:25:17.818Z,51.07
2018-11-14T20:27:46.794Z,53.70
2018-11-14T20:30:17.944Z,51.30
2018-11-14T20:32:46.866Z,55.07
2018-11-14T20:35:16.817Z,58.57
2018-11-14T20:37:45.554Z,57.67
2018-11-14T20:40:15.745Z,55.70
2018-11-14T20:42:44.857Z,52.33
2018-11-14T20:45:15.375Z,55.17
2018-11-14T20:47:44.049Z,57.80
2018-11-14T20:50:15.112Z,58.87
2018-11-14T20:52:44.401Z,52.07
2018-11-14T20:55:13.384Z,54.00
2018-11-14T20:57:42.708Z,52.60
2018-11-14T21:00:43.460Z,50.93
2018-11-14T21:03:12.387Z,51.47
2018-11-14T21:05:40.751Z,53.87
2018-11-14T21:08:09.348Z,54.27
2018-11-14T21:10:38.309Z,50.60
2018-11-14T21:13:07.105Z,50.97
2018-11-14T21:15:37.285Z,52.10
2018-11-14T21:18:07.245Z,54.07
2018-11-14T21:20:36.139Z,56.37
2018-11-14T21:23:04.628Z,57.33
2018-11-14T21:25:33.233Z,59.20
2018-11-14T21:28:02.649Z,54.73
2018-11-14T21:30:31.722Z,49.23
2018-11-14T21:33:00.777Z,54.00
2018-11-14T21:35:34.741Z,54.67
2018-11-14T21:38:04.974Z,57.37
2018-11-14T21:40:33.590Z,56.20
2018-11-14T21:43:02.018Z,58.90
2018-11-14T21:45:30.840Z,53.73
2018-11-14T21:48:04.651Z,50.23
2018-11-14T21:50:34.038Z,53.13
2018-11-14T21:53:03.011Z,52.70
2018-11-14T21:55:31.550Z,53.77
2018-11-14T21:58:00.093Z,55.83
2018-11-14T22:00:33.249Z,51.80
2018-11-14T22:03:04.577Z,59.43
2018-11-14T22:05:35.813Z,62.10
2018-11-14T22:08:04.537Z,67.03
2018-11-14T22:10:33.493Z,60.07
2018-11-14T22:13:01.947Z,59.37
2018-11-14T22:15:31.194Z,61.90
2018-11-14T22:17:59.881Z,54.33
2018-11-14T22:20:29.288Z,52.17
2018-11-14T22:22:57.874Z,54.50
2018-11-14T22:25:27.942Z,53.40
2018-11-14T22:27:57.177Z,55.60
